Lake, Louisiana
Current Conditions -  °F | °C
As of 8:55 PM on Sunday 23 Nov 2014 (Local Time) from KL38 Reporting Station
Overcast Overcast  
Wind Chill: 67°   Ceiling: 900
Heat Index: 67°   Visibility: 7mi
Dew Point: 67°   Wind: 5mph
Humidity: 100%   Direction: 190°S
Pressure: 29.7"   Gusts: NA
Location:  30.3065°N, 90.9499°W
Report Text: KL38 240255Z AUTO 19004KT 7SM BKN009 OVC015 19/19 A2970 RMK AO2 T01930193
Loading
Personal Weather Stations






























Interactive Weather Map New forecast layout! Learn more

10-Day Weather Forecast

Advertisements
Track Severe Weather on mobile